sensor_id;sensor_type;location;lat;lon;timestamp;P1;durP1;ratioP1;P2;durP2;ratioP2
7971;SDS011;4031;49.758;6.120;2024-01-25T00:01:17;12.80;;;4.07;;
7971;SDS011;4031;49.758;6.120;2024-01-25T00:03:43;14.23;;;4.40;;
7971;SDS011;4031;49.758;6.120;2024-01-25T00:06:08;17.43;;;3.93;;
7971;SDS011;4031;49.758;6.120;2024-01-25T00:08:34;21.23;;;3.90;;
7971;SDS011;4031;49.758;6.120;2024-01-25T00:11:01;16.17;;;4.07;;
7971;SDS011;4031;49.758;6.120;2024-01-25T00:13:28;11.80;;;4.03;;
7971;SDS011;4031;49.758;6.120;2024-01-25T00:15:54;13.23;;;3.43;;
7971;SDS011;4031;49.758;6.120;2024-01-25T00:18:19;9.10;;;3.40;;
7971;SDS011;4031;49.758;6.120;2024-01-25T00:20:45;15.07;;;3.10;;
7971;SDS011;4031;49.758;6.120;2024-01-25T00:23:11;16.57;;;4.10;;
7971;SDS011;4031;49.758;6.120;2024-01-25T00:25:37;7.53;;;3.40;;
7971;SDS011;4031;49.758;6.120;2024-01-25T00:28:03;13.23;;;3.07;;
7971;SDS011;4031;49.758;6.120;2024-01-25T00:30:29;11.97;;;3.83;;
7971;SDS011;4031;49.758;6.120;2024-01-25T00:32:56;17.33;;;3.90;;
7971;SDS011;4031;49.758;6.120;2024-01-25T00:35:22;15.40;;;4.50;;
7971;SDS011;4031;49.758;6.120;2024-01-25T00:37:49;17.83;;;4.43;;
7971;SDS011;4031;49.758;6.120;2024-01-25T00:40:15;14.47;;;4.10;;
7971;SDS011;4031;49.758;6.120;2024-01-25T00:42:44;14.50;;;3.57;;
7971;SDS011;4031;49.758;6.120;2024-01-25T00:45:18;19.33;;;3.60;;
7971;SDS011;4031;49.758;6.120;2024-01-25T00:47:48;14.50;;;4.30;;
7971;SDS011;4031;49.758;6.120;2024-01-25T00:50:16;14.67;;;3.73;;
7971;SDS011;4031;49.758;6.120;2024-01-25T00:52:44;10.13;;;3.70;;
7971;SDS011;4031;49.758;6.120;2024-01-25T00:55:10;10.93;;;3.87;;
7971;SDS011;4031;49.758;6.120;2024-01-25T00:57:37;19.80;;;3.77;;
7971;SDS011;4031;49.758;6.120;2024-01-25T01:00:03;17.43;;;4.17;;
7971;SDS011;4031;49.758;6.120;2024-01-25T01:02:30;16.13;;;3.23;;
7971;SDS011;4031;49.758;6.120;2024-01-25T01:05:09;17.07;;;3.53;;
7971;SDS011;4031;49.758;6.120;2024-01-25T01:07:36;17.60;;;4.07;;
7971;SDS011;4031;49.758;6.120;2024-01-25T01:10:02;13.07;;;3.40;;
7971;SDS011;4031;49.758;6.120;2024-01-25T01:12:29;20.83;;;4.37;;
7971;SDS011;4031;49.758;6.120;2024-01-25T01:14:55;9.53;;;3.57;;
7971;SDS011;4031;49.758;6.120;2024-01-25T01:17:21;17.07;;;4.20;;
7971;SDS011;4031;49.758;6.120;2024-01-25T01:19:47;20.67;;;4.50;;
7971;SDS011;4031;49.758;6.120;2024-01-25T01:22:12;15.93;;;5.20;;
7971;SDS011;4031;49.758;6.120;2024-01-25T01:24:38;10.57;;;2.70;;
7971;SDS011;4031;49.758;6.120;2024-01-25T01:27:04;11.53;;;2.80;;
7971;SDS011;4031;49.758;6.120;2024-01-25T01:29:29;14.87;;;4.03;;
7971;SDS011;4031;49.758;6.120;2024-01-25T01:31:55;12.43;;;3.83;;
7971;SDS011;4031;49.758;6.120;2024-01-25T01:34:21;10.47;;;3.10;;
7971;SDS011;4031;49.758;6.120;2024-01-25T01:36:46;16.97;;;3.90;;
7971;SDS011;4031;49.758;6.120;2024-01-25T01:39:12;11.83;;;3.33;;
7971;SDS011;4031;49.758;6.120;2024-01-25T01:41:38;12.97;;;3.53;;
7971;SDS011;4031;49.758;6.120;2024-01-25T01:44:03;12.43;;;4.03;;
7971;SDS011;4031;49.758;6.120;2024-01-25T01:46:34;18.80;;;4.40;;
7971;SDS011;4031;49.758;6.120;2024-01-25T01:49:05;22.13;;;4.10;;
7971;SDS011;4031;49.758;6.120;2024-01-25T01:51:33;26.70;;;4.10;;
7971;SDS011;4031;49.758;6.120;2024-01-25T01:54:03;12.10;;;3.47;;
7971;SDS011;4031;49.758;6.120;2024-01-25T01:56:32;17.67;;;4.87;;
7971;SDS011;4031;49.758;6.120;2024-01-25T01:59:04;17.63;;;4.33;;
7971;SDS011;4031;49.758;6.120;2024-01-25T02:01:34;15.97;;;4.17;;
7971;SDS011;4031;49.758;6.120;2024-01-25T02:04:00;21.60;;;3.80;;
7971;SDS011;4031;49.758;6.120;2024-01-25T02:06:25;22.57;;;3.63;;
7971;SDS011;4031;49.758;6.120;2024-01-25T02:08:52;12.93;;;3.73;;
7971;SDS011;4031;49.758;6.120;2024-01-25T02:11:18;20.00;;;4.33;;
7971;SDS011;4031;49.758;6.120;2024-01-25T02:13:45;17.53;;;4.67;;
7971;SDS011;4031;49.758;6.120;2024-01-25T02:16:12;17.57;;;4.93;;
7971;SDS011;4031;49.758;6.120;2024-01-25T02:18:39;16.57;;;3.67;;
7971;SDS011;4031;49.758;6.120;2024-01-25T02:21:06;17.07;;;3.97;;
7971;SDS011;4031;49.758;6.120;2024-01-25T02:23:32;23.70;;;4.10;;
7971;SDS011;4031;49.758;6.120;2024-01-25T02:25:58;16.30;;;3.60;;
7971;SDS011;4031;49.758;6.120;2024-01-25T02:28:23;19.03;;;3.70;;
7971;SDS011;4031;49.758;6.120;2024-01-25T02:30:49;13.60;;;4.30;;
7971;SDS011;4031;49.758;6.120;2024-01-25T02:33:15;12.10;;;3.93;;
7971;SDS011;4031;49.758;6.120;2024-01-25T02:35:41;13.90;;;4.17;;
7971;SDS011;4031;49.758;6.120;2024-01-25T02:38:06;10.37;;;3.17;;
7971;SDS011;4031;49.758;6.120;2024-01-25T02:40:32;14.00;;;3.40;;
7971;SDS011;4031;49.758;6.120;2024-01-25T02:42:58;7.40;;;3.37;;
7971;SDS011;4031;49.758;6.120;2024-01-25T02:45:24;16.20;;;3.33;;
7971;SDS011;4031;49.758;6.120;2024-01-25T02:47:49;15.43;;;4.43;;
7971;SDS011;4031;49.758;6.120;2024-01-25T02:50:15;15.70;;;4.50;;
7971;SDS011;4031;49.758;6.120;2024-01-25T02:52:41;21.67;;;4.97;;
7971;SDS011;4031;49.758;6.120;2024-01-25T02:55:07;10.90;;;3.30;;
7971;SDS011;4031;49.758;6.120;2024-01-25T02:57:33;13.50;;;3.73;;
7971;SDS011;4031;49.758;6.120;2024-01-25T02:59:58;14.63;;;3.43;;
7971;SDS011;4031;49.758;6.120;2024-01-25T03:02:24;15.73;;;2.80;;
7971;SDS011;4031;49.758;6.120;2024-01-25T03:04:50;17.20;;;5.33;;
7971;SDS011;4031;49.758;6.120;2024-01-25T03:07:16;12.97;;;3.90;;
7971;SDS011;4031;49.758;6.120;2024-01-25T03:09:42;8.90;;;3.17;;
7971;SDS011;4031;49.758;6.120;2024-01-25T03:12:07;22.63;;;6.27;;
7971;SDS011;4031;49.758;6.120;2024-01-25T03:14:33;12.97;;;3.80;;
7971;SDS011;4031;49.758;6.120;2024-01-25T03:16:59;16.80;;;4.50;;
7971;SDS011;4031;49.758;6.120;2024-01-25T03:19:25;26.53;;;4.53;;
7971;SDS011;4031;49.758;6.120;2024-01-25T03:21:51;12.20;;;3.80;;
7971;SDS011;4031;49.758;6.120;2024-01-25T03:24:19;9.80;;;2.70;;
7971;SDS011;4031;49.758;6.120;2024-01-25T03:26:49;8.30;;;3.20;;
7971;SDS011;4031;49.758;6.120;2024-01-25T03:29:15;10.30;;;2.83;;
7971;SDS011;4031;49.758;6.120;2024-01-25T03:31:40;17.33;;;3.77;;
7971;SDS011;4031;49.758;6.120;2024-01-25T03:34:06;8.00;;;2.93;;
7971;SDS011;4031;49.758;6.120;2024-01-25T03:36:32;20.70;;;3.53;;
7971;SDS011;4031;49.758;6.120;2024-01-25T03:38:58;19.40;;;3.70;;
7971;SDS011;4031;49.758;6.120;2024-01-25T03:41:23;20.23;;;5.50;;
7971;SDS011;4031;49.758;6.120;2024-01-25T03:43:50;17.83;;;5.10;;
7971;SDS011;4031;49.758;6.120;2024-01-25T03:46:16;12.63;;;3.77;;
7971;SDS011;4031;49.758;6.120;2024-01-25T03:48:42;14.97;;;3.80;;
7971;SDS011;4031;49.758;6.120;2024-01-25T03:51:08;21.10;;;4.87;;
7971;SDS011;4031;49.758;6.120;2024-01-25T03:53:34;17.43;;;4.63;;
7971;SDS011;4031;49.758;6.120;2024-01-25T03:55:59;15.13;;;4.23;;
7971;SDS011;4031;49.758;6.120;2024-01-25T03:58:25;10.00;;;4.63;;
7971;SDS011;4031;49.758;6.120;2024-01-25T04:00:51;19.33;;;4.90;;
7971;SDS011;4031;49.758;6.120;2024-01-25T04:03:17;14.77;;;3.70;;
7971;SDS011;4031;49.758;6.120;2024-01-25T04:05:42;18.60;;;3.63;;
7971;SDS011;4031;49.758;6.120;2024-01-25T04:08:08;19.43;;;4.37;;
7971;SDS011;4031;49.758;6.120;2024-01-25T04:10:34;11.37;;;4.20;;
7971;SDS011;4031;49.758;6.120;2024-01-25T04:12:59;15.70;;;4.10;;
7971;SDS011;4031;49.758;6.120;2024-01-25T04:15:26;14.33;;;4.43;;
7971;SDS011;4031;49.758;6.120;2024-01-25T04:17:52;12.57;;;4.17;;
7971;SDS011;4031;49.758;6.120;2024-01-25T04:20:18;20.10;;;4.83;;
7971;SDS011;4031;49.758;6.120;2024-01-25T04:22:44;18.10;;;4.80;;
7971;SDS011;4031;49.758;6.120;2024-01-25T04:25:10;17.87;;;4.57;;
7971;SDS011;4031;49.758;6.120;2024-01-25T04:27:37;12.70;;;3.23;;
7971;SDS011;4031;49.758;6.120;2024-01-25T04:30:03;20.50;;;4.60;;
7971;SDS011;4031;49.758;6.120;2024-01-25T04:32:33;19.47;;;7.03;;
7971;SDS011;4031;49.758;6.120;2024-01-25T04:34:59;10.80;;;4.60;;
7971;SDS011;4031;49.758;6.120;2024-01-25T04:37:25;14.57;;;3.70;;
7971;SDS011;4031;49.758;6.120;2024-01-25T04:39:51;13.33;;;3.67;;
7971;SDS011;4031;49.758;6.120;2024-01-25T04:42:17;12.80;;;3.83;;
7971;SDS011;4031;49.758;6.120;2024-01-25T04:44:43;14.60;;;4.53;;
7971;SDS011;4031;49.758;6.120;2024-01-25T04:47:09;13.50;;;4.10;;
7971;SDS011;4031;49.758;6.120;2024-01-25T04:49:35;11.93;;;3.60;;
7971;SDS011;4031;49.758;6.120;2024-01-25T04:52:01;16.60;;;3.23;;
7971;SDS011;4031;49.758;6.120;2024-01-25T04:54:27;14.00;;;3.70;;
7971;SDS011;4031;49.758;6.120;2024-01-25T04:56:53;15.63;;;5.27;;
7971;SDS011;4031;49.758;6.120;2024-01-25T04:59:18;20.80;;;3.40;;
7971;SDS011;4031;49.758;6.120;2024-01-25T05:01:44;12.73;;;3.40;;
7971;SDS011;4031;49.758;6.120;2024-01-25T05:04:10;7.80;;;2.27;;
7971;SDS011;4031;49.758;6.120;2024-01-25T05:06:35;15.53;;;3.43;;
7971;SDS011;4031;49.758;6.120;2024-01-25T05:09:01;16.40;;;4.47;;
7971;SDS011;4031;49.758;6.120;2024-01-25T05:11:28;17.40;;;4.30;;
7971;SDS011;4031;49.758;6.120;2024-01-25T05:13:53;11.10;;;2.30;;
7971;SDS011;4031;49.758;6.120;2024-01-25T05:16:19;15.23;;;5.03;;
7971;SDS011;4031;49.758;6.120;2024-01-25T05:18:45;18.73;;;4.47;;
7971;SDS011;4031;49.758;6.120;2024-01-25T05:21:10;16.30;;;4.00;;
7971;SDS011;4031;49.758;6.120;2024-01-25T05:23:36;26.77;;;5.40;;
7971;SDS011;4031;49.758;6.120;2024-01-25T05:26:02;14.23;;;3.27;;
7971;SDS011;4031;49.758;6.120;2024-01-25T05:28:27;13.40;;;4.70;;
7971;SDS011;4031;49.758;6.120;2024-01-25T05:30:53;11.97;;;7.17;;
7971;SDS011;4031;49.758;6.120;2024-01-25T05:33:19;10.87;;;3.77;;
7971;SDS011;4031;49.758;6.120;2024-01-25T05:35:44;15.03;;;4.23;;
7971;SDS011;4031;49.758;6.120;2024-01-25T05:38:10;12.07;;;4.00;;
7971;SDS011;4031;49.758;6.120;2024-01-25T05:40:36;13.63;;;4.37;;
7971;SDS011;4031;49.758;6.120;2024-01-25T05:43:02;17.83;;;4.40;;
7971;SDS011;4031;49.758;6.120;2024-01-25T05:45:28;15.50;;;4.33;;
7971;SDS011;4031;49.758;6.120;2024-01-25T05:47:53;13.63;;;3.07;;
7971;SDS011;4031;49.758;6.120;2024-01-25T05:50:19;23.20;;;3.30;;
7971;SDS011;4031;49.758;6.120;2024-01-25T05:52:45;17.63;;;3.60;;
7971;SDS011;4031;49.758;6.120;2024-01-25T05:55:10;11.17;;;3.70;;
7971;SDS011;4031;49.758;6.120;2024-01-25T05:57:39;12.87;;;4.07;;
7971;SDS011;4031;49.758;6.120;2024-01-25T06:00:04;15.87;;;3.73;;
7971;SDS011;4031;49.758;6.120;2024-01-25T06:02:31;16.10;;;4.00;;
7971;SDS011;4031;49.758;6.120;2024-01-25T06:04:56;17.23;;;5.03;;
7971;SDS011;4031;49.758;6.120;2024-01-25T06:07:24;11.97;;;4.30;;
7971;SDS011;4031;49.758;6.120;2024-01-25T06:09:50;21.67;;;7.13;;
7971;SDS011;4031;49.758;6.120;2024-01-25T06:12:16;12.53;;;4.07;;
7971;SDS011;4031;49.758;6.120;2024-01-25T06:14:42;20.87;;;4.60;;
7971;SDS011;4031;49.758;6.120;2024-01-25T06:17:08;9.47;;;3.50;;
7971;SDS011;4031;49.758;6.120;2024-01-25T06:19:33;9.70;;;5.00;;
7971;SDS011;4031;49.758;6.120;2024-01-25T06:21:59;13.63;;;5.53;;
7971;SDS011;4031;49.758;6.120;2024-01-25T06:24:25;16.83;;;5.67;;
7971;SDS011;4031;49.758;6.120;2024-01-25T06:26:52;17.77;;;6.67;;
7971;SDS011;4031;49.758;6.120;2024-01-25T06:29:18;16.70;;;5.03;;
7971;SDS011;4031;49.758;6.120;2024-01-25T06:31:44;23.30;;;4.73;;
7971;SDS011;4031;49.758;6.120;2024-01-25T06:34:10;15.53;;;4.43;;
7971;SDS011;4031;49.758;6.120;2024-01-25T06:36:37;27.77;;;5.70;;
7971;SDS011;4031;49.758;6.120;2024-01-25T06:39:03;11.97;;;4.77;;
7971;SDS011;4031;49.758;6.120;2024-01-25T06:41:31;9.20;;;3.40;;
7971;SDS011;4031;49.758;6.120;2024-01-25T06:43:57;9.57;;;3.63;;
7971;SDS011;4031;49.758;6.120;2024-01-25T06:46:24;17.63;;;4.50;;
7971;SDS011;4031;49.758;6.120;2024-01-25T06:48:50;17.73;;;5.03;;
7971;SDS011;4031;49.758;6.120;2024-01-25T06:51:16;19.03;;;5.00;;
7971;SDS011;4031;49.758;6.120;2024-01-25T06:53:42;12.97;;;4.97;;
7971;SDS011;4031;49.758;6.120;2024-01-25T06:56:08;16.67;;;3.83;;
7971;SDS011;4031;49.758;6.120;2024-01-25T06:58:33;19.17;;;4.40;;
7971;SDS011;4031;49.758;6.120;2024-01-25T07:00:59;10.50;;;3.00;;
7971;SDS011;4031;49.758;6.120;2024-01-25T07:03:25;15.17;;;3.90;;
7971;SDS011;4031;49.758;6.120;2024-01-25T07:05:51;19.00;;;4.67;;
7971;SDS011;4031;49.758;6.120;2024-01-25T07:08:16;20.97;;;4.83;;
7971;SDS011;4031;49.758;6.120;2024-01-25T07:10:43;13.97;;;5.20;;
7971;SDS011;4031;49.758;6.120;2024-01-25T07:13:09;19.47;;;6.27;;
7971;SDS011;4031;49.758;6.120;2024-01-25T07:15:35;27.80;;;6.10;;
7971;SDS011;4031;49.758;6.120;2024-01-25T07:18:01;21.30;;;7.07;;
7971;SDS011;4031;49.758;6.120;2024-01-25T07:20:27;20.77;;;8.80;;
7971;SDS011;4031;49.758;6.120;2024-01-25T07:22:52;15.60;;;6.80;;
7971;SDS011;4031;49.758;6.120;2024-01-25T07:25:18;26.77;;;8.00;;
7971;SDS011;4031;49.758;6.120;2024-01-25T07:27:44;12.60;;;4.20;;
7971;SDS011;4031;49.758;6.120;2024-01-25T07:30:12;14.20;;;4.87;;
7971;SDS011;4031;49.758;6.120;2024-01-25T07:32:39;22.67;;;5.50;;
7971;SDS011;4031;49.758;6.120;2024-01-25T07:35:07;27.67;;;5.90;;
7971;SDS011;4031;49.758;6.120;2024-01-25T07:37:36;8.00;;;4.30;;
7971;SDS011;4031;49.758;6.120;2024-01-25T07:40:02;15.67;;;4.83;;
7971;SDS011;4031;49.758;6.120;2024-01-25T07:42:31;17.97;;;5.10;;
7971;SDS011;4031;49.758;6.120;2024-01-25T07:44:57;16.40;;;7.20;;
7971;SDS011;4031;49.758;6.120;2024-01-25T07:47:23;14.23;;;5.23;;
7971;SDS011;4031;49.758;6.120;2024-01-25T07:49:49;25.03;;;6.97;;
7971;SDS011;4031;49.758;6.120;2024-01-25T07:52:14;16.13;;;6.40;;
7971;SDS011;4031;49.758;6.120;2024-01-25T07:54:40;11.10;;;5.57;;
7971;SDS011;4031;49.758;6.120;2024-01-25T07:57:06;7.27;;;4.20;;
7971;SDS011;4031;49.758;6.120;2024-01-25T07:59:32;13.43;;;5.33;;
7971;SDS011;4031;49.758;6.120;2024-01-25T08:01:57;27.73;;;6.33;;
7971;SDS011;4031;49.758;6.120;2024-01-25T08:04:23;18.50;;;5.10;;
7971;SDS011;4031;49.758;6.120;2024-01-25T08:06:49;18.63;;;5.67;;
7971;SDS011;4031;49.758;6.120;2024-01-25T08:09:14;26.50;;;5.90;;
7971;SDS011;4031;49.758;6.120;2024-01-25T08:11:41;21.53;;;6.60;;
7971;SDS011;4031;49.758;6.120;2024-01-25T08:14:07;20.97;;;7.33;;
7971;SDS011;4031;49.758;6.120;2024-01-25T08:16:32;29.90;;;5.93;;
7971;SDS011;4031;49.758;6.120;2024-01-25T08:19:00;13.40;;;5.40;;
7971;SDS011;4031;49.758;6.120;2024-01-25T08:21:25;17.83;;;5.77;;
7971;SDS011;4031;49.758;6.120;2024-01-25T08:23:51;15.50;;;5.40;;
7971;SDS011;4031;49.758;6.120;2024-01-25T08:26:17;25.03;;;7.63;;
7971;SDS011;4031;49.758;6.120;2024-01-25T08:28:43;14.50;;;6.70;;
7971;SDS011;4031;49.758;6.120;2024-01-25T08:31:09;18.13;;;5.70;;
7971;SDS011;4031;49.758;6.120;2024-01-25T08:33:35;14.07;;;5.60;;
7971;SDS011;4031;49.758;6.120;2024-01-25T08:36:02;14.30;;;5.30;;
7971;SDS011;4031;49.758;6.120;2024-01-25T08:38:28;13.57;;;5.37;;
7971;SDS011;4031;49.758;6.120;2024-01-25T08:40:53;18.93;;;7.10;;
7971;SDS011;4031;49.758;6.120;2024-01-25T08:43:19;16.70;;;6.77;;
7971;SDS011;4031;49.758;6.120;2024-01-25T08:45:45;11.27;;;6.00;;
7971;SDS011;4031;49.758;6.120;2024-01-25T08:48:11;17.50;;;8.50;;
7971;SDS011;4031;49.758;6.120;2024-01-25T08:50:38;17.63;;;5.30;;
7971;SDS011;4031;49.758;6.120;2024-01-25T08:53:04;20.90;;;6.67;;
7971;SDS011;4031;49.758;6.120;2024-01-25T08:55:30;25.13;;;7.10;;
7971;SDS011;4031;49.758;6.120;2024-01-25T08:57:56;15.33;;;6.30;;
7971;SDS011;4031;49.758;6.120;2024-01-25T09:00:22;22.37;;;6.90;;
7971;SDS011;4031;49.758;6.120;2024-01-25T09:02:47;13.40;;;5.63;;
7971;SDS011;4031;49.758;6.120;2024-01-25T09:05:13;26.27;;;6.30;;
7971;SDS011;4031;49.758;6.120;2024-01-25T09:07:39;16.20;;;6.17;;
7971;SDS011;4031;49.758;6.120;2024-01-25T09:10:06;23.63;;;7.40;;
7971;SDS011;4031;49.758;6.120;2024-01-25T09:12:33;31.70;;;7.00;;
7971;SDS011;4031;49.758;6.120;2024-01-25T09:15:00;23.47;;;7.50;;
7971;SDS011;4031;49.758;6.120;2024-01-25T09:17:26;12.57;;;5.80;;
7971;SDS011;4031;49.758;6.120;2024-01-25T09:19:53;18.80;;;5.30;;
7971;SDS011;4031;49.758;6.120;2024-01-25T09:22:19;15.83;;;4.80;;
7971;SDS011;4031;49.758;6.120;2024-01-25T09:24:46;10.73;;;4.77;;
7971;SDS011;4031;49.758;6.120;2024-01-25T09:27:12;9.53;;;4.70;;
7971;SDS011;4031;49.758;6.120;2024-01-25T09:29:41;9.40;;;5.30;;
7971;SDS011;4031;49.758;6.120;2024-01-25T09:32:07;10.53;;;4.90;;
7971;SDS011;4031;49.758;6.120;2024-01-25T09:34:34;11.27;;;4.17;;
7971;SDS011;4031;49.758;6.120;2024-01-25T09:37:02;13.40;;;4.73;;
7971;SDS011;4031;49.758;6.120;2024-01-25T09:39:28;9.73;;;4.87;;
7971;SDS011;4031;49.758;6.120;2024-01-25T09:41:54;9.67;;;3.80;;
7971;SDS011;4031;49.758;6.120;2024-01-25T09:44:20;9.00;;;4.47;;
7971;SDS011;4031;49.758;6.120;2024-01-25T09:46:46;9.30;;;5.40;;
7971;SDS011;4031;49.758;6.120;2024-01-25T09:49:11;11.20;;;4.70;;
7971;SDS011;4031;49.758;6.120;2024-01-25T09:51:38;13.17;;;4.80;;
7971;SDS011;4031;49.758;6.120;2024-01-25T09:54:06;5.10;;;3.47;;
7971;SDS011;4031;49.758;6.120;2024-01-25T09:56:32;11.40;;;4.93;;
7971;SDS011;4031;49.758;6.120;2024-01-25T09:58:58;10.73;;;4.17;;
7971;SDS011;4031;49.758;6.120;2024-01-25T10:01:26;7.80;;;4.50;;
7971;SDS011;4031;49.758;6.120;2024-01-25T10:03:53;9.53;;;5.33;;
7971;SDS011;4031;49.758;6.120;2024-01-25T10:06:21;10.23;;;5.07;;
7971;SDS011;4031;49.758;6.120;2024-01-25T10:08:47;14.17;;;5.73;;
7971;SDS011;4031;49.758;6.120;2024-01-25T10:11:12;11.20;;;4.20;;
7971;SDS011;4031;49.758;6.120;2024-01-25T10:13:46;9.57;;;4.33;;
7971;SDS011;4031;49.758;6.120;2024-01-25T10:16:13;6.50;;;3.97;;
7971;SDS011;4031;49.758;6.120;2024-01-25T10:18:40;9.47;;;5.13;;
7971;SDS011;4031;49.758;6.120;2024-01-25T10:21:09;8.87;;;3.83;;
7971;SDS011;4031;49.758;6.120;2024-01-25T10:23:39;6.13;;;4.40;;
7971;SDS011;4031;49.758;6.120;2024-01-25T10:26:07;10.73;;;3.80;;
7971;SDS011;4031;49.758;6.120;2024-01-25T10:28:33;10.77;;;4.70;;
7971;SDS011;4031;49.758;6.120;2024-01-25T10:31:00;9.30;;;4.23;;
7971;SDS011;4031;49.758;6.120;2024-01-25T10:33:29;9.67;;;4.60;;
7971;SDS011;4031;49.758;6.120;2024-01-25T10:35:55;9.43;;;4.13;;
7971;SDS011;4031;49.758;6.120;2024-01-25T10:38:32;11.73;;;5.77;;
7971;SDS011;4031;49.758;6.120;2024-01-25T10:41:03;7.93;;;4.03;;
7971;SDS011;4031;49.758;6.120;2024-01-25T10:43:34;6.60;;;3.90;;
7971;SDS011;4031;49.758;6.120;2024-01-25T10:46:00;10.57;;;3.77;;
7971;SDS011;4031;49.758;6.120;2024-01-25T10:48:26;11.67;;;4.93;;
7971;SDS011;4031;49.758;6.120;2024-01-25T10:50:53;12.97;;;4.17;;
7971;SDS011;4031;49.758;6.120;2024-01-25T10:53:20;13.23;;;5.00;;
7971;SDS011;4031;49.758;6.120;2024-01-25T10:55:47;12.43;;;5.70;;
7971;SDS011;4031;49.758;6.120;2024-01-25T10:58:13;11.37;;;4.53;;
7971;SDS011;4031;49.758;6.120;2024-01-25T11:00:39;11.43;;;3.80;;
7971;SDS011;4031;49.758;6.120;2024-01-25T11:03:08;8.73;;;4.47;;
7971;SDS011;4031;49.758;6.120;2024-01-25T11:05:34;11.00;;;4.50;;
7971;SDS011;4031;49.758;6.120;2024-01-25T11:08:00;10.73;;;4.67;;
7971;SDS011;4031;49.758;6.120;2024-01-25T11:10:26;21.77;;;5.70;;
7971;SDS011;4031;49.758;6.120;2024-01-25T11:12:56;9.53;;;4.43;;
7971;SDS011;4031;49.758;6.120;2024-01-25T11:15:31;11.80;;;4.80;;
7971;SDS011;4031;49.758;6.120;2024-01-25T11:17:57;9.93;;;4.93;;
7971;SDS011;4031;49.758;6.120;2024-01-25T11:20:24;16.40;;;6.00;;
7971;SDS011;4031;49.758;6.120;2024-01-25T11:22:58;14.40;;;4.57;;
7971;SDS011;4031;49.758;6.120;2024-01-25T11:25:30;16.73;;;6.00;;
7971;SDS011;4031;49.758;6.120;2024-01-25T11:27:58;20.67;;;5.00;;
7971;SDS011;4031;49.758;6.120;2024-01-25T11:30:29;8.63;;;5.83;;
7971;SDS011;4031;49.758;6.120;2024-01-25T11:32:58;15.13;;;5.47;;
7971;SDS011;4031;49.758;6.120;2024-01-25T11:35:25;13.53;;;5.20;;
7971;SDS011;4031;49.758;6.120;2024-01-25T11:37:52;13.80;;;4.90;;
7971;SDS011;4031;49.758;6.120;2024-01-25T11:40:17;18.37;;;6.13;;
7971;SDS011;4031;49.758;6.120;2024-01-25T11:42:46;11.13;;;5.40;;
7971;SDS011;4031;49.758;6.120;2024-01-25T11:45:14;15.10;;;6.07;;
7971;SDS011;4031;49.758;6.120;2024-01-25T11:47:41;17.37;;;6.63;;
7971;SDS011;4031;49.758;6.120;2024-01-25T11:50:08;17.50;;;6.83;;
7971;SDS011;4031;49.758;6.120;2024-01-25T11:52:37;11.47;;;5.10;;
7971;SDS011;4031;49.758;6.120;2024-01-25T11:55:04;11.60;;;5.73;;
7971;SDS011;4031;49.758;6.120;2024-01-25T11:57:32;16.87;;;5.47;;
7971;SDS011;4031;49.758;6.120;2024-01-25T12:00:03;17.13;;;6.00;;
7971;SDS011;4031;49.758;6.120;2024-01-25T12:02:31;13.30;;;4.90;;
7971;SDS011;4031;49.758;6.120;2024-01-25T12:04:57;13.80;;;4.60;;
7971;SDS011;4031;49.758;6.120;2024-01-25T12:07:23;9.33;;;5.23;;
7971;SDS011;4031;49.758;6.120;2024-01-25T12:09:59;14.63;;;6.57;;
7971;SDS011;4031;49.758;6.120;2024-01-25T12:12:29;16.20;;;8.03;;
7971;SDS011;4031;49.758;6.120;2024-01-25T12:14:59;13.50;;;5.83;;
7971;SDS011;4031;49.758;6.120;2024-01-25T12:17:32;13.83;;;5.67;;
7971;SDS011;4031;49.758;6.120;2024-01-25T12:20:01;9.20;;;5.20;;
7971;SDS011;4031;49.758;6.120;2024-01-25T12:22:28;16.20;;;7.03;;
7971;SDS011;4031;49.758;6.120;2024-01-25T12:24:55;18.33;;;6.50;;
7971;SDS011;4031;49.758;6.120;2024-01-25T12:27:22;10.60;;;5.50;;
7971;SDS011;4031;49.758;6.120;2024-01-25T12:29:50;18.27;;;6.37;;
7971;SDS011;4031;49.758;6.120;2024-01-25T12:32:18;14.07;;;6.00;;
7971;SDS011;4031;49.758;6.120;2024-01-25T12:34:58;20.83;;;6.20;;
7971;SDS011;4031;49.758;6.120;2024-01-25T12:37:28;17.60;;;5.67;;
7971;SDS011;4031;49.758;6.120;2024-01-25T12:39:54;18.23;;;6.93;;
7971;SDS011;4031;49.758;6.120;2024-01-25T12:42:21;21.93;;;7.53;;
7971;SDS011;4031;49.758;6.120;2024-01-25T12:44:47;23.13;;;8.63;;
7971;SDS011;4031;49.758;6.120;2024-01-25T12:47:13;19.17;;;7.53;;
7971;SDS011;4031;49.758;6.120;2024-01-25T12:49:40;17.83;;;6.90;;
7971;SDS011;4031;49.758;6.120;2024-01-25T12:52:07;20.80;;;7.10;;
7971;SDS011;4031;49.758;6.120;2024-01-25T12:54:34;20.03;;;7.47;;
7971;SDS011;4031;49.758;6.120;2024-01-25T12:56:59;11.73;;;6.50;;
7971;SDS011;4031;49.758;6.120;2024-01-25T12:59:25;19.23;;;8.80;;
7971;SDS011;4031;49.758;6.120;2024-01-25T13:01:51;22.13;;;8.43;;
7971;SDS011;4031;49.758;6.120;2024-01-25T13:04:16;24.07;;;8.70;;
7971;SDS011;4031;49.758;6.120;2024-01-25T13:06:42;23.80;;;8.83;;
7971;SDS011;4031;49.758;6.120;2024-01-25T13:09:08;15.57;;;6.80;;
7971;SDS011;4031;49.758;6.120;2024-01-25T13:11:34;15.37;;;7.40;;
7971;SDS011;4031;49.758;6.120;2024-01-25T13:14:00;15.30;;;5.57;;
7971;SDS011;4031;49.758;6.120;2024-01-25T13:16:25;13.57;;;4.97;;
7971;SDS011;4031;49.758;6.120;2024-01-25T13:18:51;14.27;;;5.83;;
7971;SDS011;4031;49.758;6.120;2024-01-25T13:21:17;10.37;;;5.67;;
7971;SDS011;4031;49.758;6.120;2024-01-25T13:23:42;11.23;;;5.93;;
7971;SDS011;4031;49.758;6.120;2024-01-25T13:26:08;11.70;;;5.07;;
7971;SDS011;4031;49.758;6.120;2024-01-25T13:28:34;16.43;;;6.10;;
7971;SDS011;4031;49.758;6.120;2024-01-25T13:31:00;13.50;;;5.40;;
7971;SDS011;4031;49.758;6.120;2024-01-25T13:33:25;16.47;;;6.23;;
7971;SDS011;4031;49.758;6.120;2024-01-25T13:35:51;7.37;;;3.70;;
7971;SDS011;4031;49.758;6.120;2024-01-25T13:38:17;19.40;;;4.63;;
7971;SDS011;4031;49.758;6.120;2024-01-25T13:40:42;8.10;;;4.07;;
7971;SDS011;4031;49.758;6.120;2024-01-25T13:43:08;9.97;;;5.77;;
7971;SDS011;4031;49.758;6.120;2024-01-25T13:45:34;16.93;;;5.10;;
7971;SDS011;4031;49.758;6.120;2024-01-25T13:48:00;9.60;;;4.40;;
7971;SDS011;4031;49.758;6.120;2024-01-25T13:50:25;14.60;;;4.63;;
7971;SDS011;4031;49.758;6.120;2024-01-25T13:52:51;9.37;;;4.40;;
7971;SDS011;4031;49.758;6.120;2024-01-25T13:55:17;7.03;;;3.63;;
7971;SDS011;4031;49.758;6.120;2024-01-25T13:57:42;8.33;;;4.97;;
7971;SDS011;4031;49.758;6.120;2024-01-25T14:00:08;11.07;;;5.37;;
7971;SDS011;4031;49.758;6.120;2024-01-25T14:02:35;7.33;;;5.73;;
7971;SDS011;4031;49.758;6.120;2024-01-25T14:05:01;8.30;;;5.00;;
7971;SDS011;4031;49.758;6.120;2024-01-25T14:07:27;10.77;;;5.10;;
7971;SDS011;4031;49.758;6.120;2024-01-25T14:09:53;11.10;;;4.83;;
7971;SDS011;4031;49.758;6.120;2024-01-25T14:12:18;8.57;;;3.70;;
7971;SDS011;4031;49.758;6.120;2024-01-25T14:14:44;6.40;;;3.17;;
7971;SDS011;4031;49.758;6.120;2024-01-25T14:17:10;3.37;;;2.23;;
7971;SDS011;4031;49.758;6.120;2024-01-25T14:19:36;3.70;;;2.27;;
7971;SDS011;4031;49.758;6.120;2024-01-25T14:22:01;3.50;;;2.50;;
7971;SDS011;4031;49.758;6.120;2024-01-25T14:24:27;6.57;;;2.67;;
7971;SDS011;4031;49.758;6.120;2024-01-25T14:26:53;4.00;;;3.30;;
7971;SDS011;4031;49.758;6.120;2024-01-25T14:29:19;5.00;;;2.97;;
7971;SDS011;4031;49.758;6.120;2024-01-25T14:31:44;4.40;;;2.90;;
7971;SDS011;4031;49.758;6.120;2024-01-25T14:34:10;3.77;;;2.50;;
7971;SDS011;4031;49.758;6.120;2024-01-25T14:36:36;3.33;;;2.60;;
7971;SDS011;4031;49.758;6.120;2024-01-25T14:39:02;6.70;;;4.60;;
7971;SDS011;4031;49.758;6.120;2024-01-25T14:41:28;7.00;;;3.83;;
7971;SDS011;4031;49.758;6.120;2024-01-25T14:43:55;6.00;;;3.63;;
7971;SDS011;4031;49.758;6.120;2024-01-25T14:46:21;8.80;;;4.47;;
7971;SDS011;4031;49.758;6.120;2024-01-25T14:48:50;8.67;;;3.90;;
7971;SDS011;4031;49.758;6.120;2024-01-25T14:51:15;5.47;;;3.27;;
7971;SDS011;4031;49.758;6.120;2024-01-25T14:53:41;8.67;;;4.33;;
7971;SDS011;4031;49.758;6.120;2024-01-25T14:56:07;5.50;;;4.40;;
7971;SDS011;4031;49.758;6.120;2024-01-25T14:58:34;8.93;;;4.80;;
7971;SDS011;4031;49.758;6.120;2024-01-25T15:00:59;6.17;;;4.07;;